Time;durP1;ratioP1;P1;durP2;ratioP2;P2;SDS_P1;SDS_P2;PMS_P1;PMS_P2;Temp;Humidity;BMP_temperature;BMP_pressure;BME280_temperature;BME280_humidity;BME280_pressure;Samples;Min_cycle;Max_cycle;Signal;HPM_P1;HPM_P2
2021/08/14 00:00:46;;;;;;;11.55;4.55;;;;;;;23.10;45.27;101680.50;5061975;28;20031;-87
2021/08/14 00:03:11;;;;;;;10.75;4.63;;;;;;;23.13;45.04;101685.34;5044874;28;20387;-82
2021/08/14 00:05:37;;;;;;;15.48;4.78;;;;;;;22.98;45.91;101675.97;5045127;28;20024;-82
2021/08/14 00:08:03;;;;;;;14.40;4.85;;;;;;;22.93;45.70;101678.25;5066658;28;20031;-83
2021/08/14 00:10:28;;;;;;;17.02;5.20;;;;;;;22.82;46.04;101675.28;5044097;28;20814;-80
2021/08/14 00:12:54;;;;;;;14.82;4.00;;;;;;;23.05;45.05;101680.00;5062552;28;20021;-81
2021/08/14 00:15:19;;;;;;;14.50;4.85;;;;;;;22.99;45.49;101685.13;5046357;28;20066;-80
2021/08/14 00:17:45;;;;;;;13.82;4.60;;;;;;;23.01;45.26;101677.19;5064745;28;20471;-80
2021/08/14 00:20:11;;;;;;;11.75;4.22;;;;;;;23.08;45.15;101670.91;5064351;28;20021;-80
2021/08/14 00:22:37;;;;;;;12.68;4.95;;;;;;;22.96;45.46;101677.50;5064369;28;20021;-81
2021/08/14 00:25:03;;;;;;;15.25;5.50;;;;;;;22.97;45.64;101670.72;5072204;28;20036;-83
2021/08/14 00:29:43;;;;;;;10.95;4.82;;;;;;;22.91;45.81;101677.84;5064501;27;1844368;-80
2021/08/14 00:32:08;;;;;;;12.13;4.03;;;;;;;22.81;46.40;101682.00;5092361;28;20489;-84
2021/08/14 00:34:34;;;;;;;15.02;4.75;;;;;;;22.74;46.51;101683.88;5092143;28;20055;-80
2021/08/14 00:36:59;;;;;;;16.60;5.45;;;;;;;22.85;46.28;101682.09;5092092;28;20435;-80
2021/08/14 00:39:25;;;;;;;13.00;4.45;;;;;;;22.90;46.26;101677.03;5110329;28;20123;-80
2021/08/14 00:41:51;;;;;;;13.18;4.45;;;;;;;22.89;46.42;101674.59;5109913;28;20036;-81
2021/08/14 00:44:18;;;;;;;13.98;4.05;;;;;;;22.77;46.68;101677.56;5091979;28;20028;-82
2021/08/14 00:46:44;;;;;;;13.63;5.07;;;;;;;22.78;46.89;101662.47;5110313;28;20519;-80
2021/08/14 00:49:10;;;;;;;17.80;5.40;;;;;;;22.87;46.25;101658.25;5110097;28;20077;-81
2021/08/14 00:51:36;;;;;;;13.38;4.70;;;;;;;22.81;46.42;101656.13;5110130;28;20027;-81
2021/08/14 00:54:02;;;;;;;18.35;5.28;;;;;;;22.63;47.06;101653.88;5110165;28;20111;-81
2021/08/14 00:56:28;;;;;;;17.15;5.13;;;;;;;22.39;47.72;101652.28;5109931;28;20035;-83
2021/08/14 00:58:58;;;;;;;11.70;4.68;;;;;;;22.36;47.88;101653.00;5091603;28;20020;-83
2021/08/14 01:01:24;;;;;;;13.20;4.68;;;;;;;22.27;48.48;101657.22;5108699;28;20028;-80
2021/08/14 01:03:51;;;;;;;13.05;4.45;;;;;;;22.34;48.04;101646.22;5091617;28;20032;-80
2021/08/14 01:06:17;;;;;;;14.05;4.50;;;;;;;22.47;47.64;101653.22;5109886;28;20031;-81
2021/08/14 01:08:53;;;;;;;13.20;5.47;;;;;;;22.33;48.12;101653.78;5109732;28;20024;-81
2021/08/14 01:11:20;;;;;;;12.05;4.45;;;;;;;22.53;47.42;101651.72;5091323;28;20051;-80
2021/08/14 01:13:46;;;;;;;12.48;4.30;;;;;;;22.56;47.46;101653.75;5109805;28;20020;-81
2021/08/14 01:16:12;;;;;;;12.48;5.57;;;;;;;22.66;47.31;101649.53;5109683;28;20027;-80
2021/08/14 01:18:45;;;;;;;14.65;5.38;;;;;;;22.29;48.69;101657.66;5091788;28;20035;-82
2021/08/14 01:21:24;;;;;;;16.45;5.22;;;;;;;22.55;47.90;101648.56;5109520;28;20102;-82
2021/08/14 01:23:54;;;;;;;12.85;5.07;;;;;;;22.51;47.87;101651.28;5109545;28;20020;-81
2021/08/14 01:26:20;;;;;;;;;;;;;;;22.45;48.27;101649.19;5091997;28;20031;-80
2021/08/14 01:28:46;;;;;;;12.73;5.55;;;;;;;22.29;48.53;101647.34;5109242;28;19919;-80
2021/08/14 01:31:13;;;;;;;16.30;5.35;;;;;;;22.34;48.30;101649.00;5109251;28;20024;-80
2021/08/14 01:33:41;;;;;;;19.80;6.65;;;;;;;22.37;48.18;101648.28;5109387;28;20074;-81
2021/08/14 01:36:12;;;;;;;15.55;5.13;;;;;;;22.44;48.01;101651.16;5091093;28;20058;-80
2021/08/14 01:38:50;;;;;;;20.77;5.97;;;;;;;22.14;49.44;101657.44;5109271;28;20038;-84
2021/08/14 01:41:16;;;;;;;12.63;6.20;;;;;;;22.07;49.76;101651.69;5094515;28;20490;-81
2021/08/14 01:44:02;;;;;;;12.38;4.82;;;;;;;22.03;50.10;101645.25;5074412;28;20111;-82
2021/08/14 01:46:31;;;;;;;17.50;6.18;;;;;;;22.30;49.34;101642.59;5077196;28;20051;-80
2021/08/14 01:48:57;;;;;;;14.25;5.85;;;;;;;22.32;49.09;101637.44;5095562;28;20024;-81
2021/08/14 01:51:23;;;;;;;18.13;6.32;;;;;;;22.47;48.91;101644.84;5095435;28;20058;-81
2021/08/14 01:53:54;;;;;;;17.77;6.45;;;;;;;22.43;49.38;101649.56;5077348;28;20024;-81
2021/08/14 01:56:21;;;;;;;24.65;6.63;;;;;;;22.51;49.08;101654.06;5077315;28;20470;-80
2021/08/14 01:58:47;;;;;;;25.95;6.88;;;;;;;22.67;48.56;101651.97;5077209;28;20020;-80
2021/08/14 02:01:13;;;;;;;14.38;5.50;;;;;;;22.23;49.99;101650.81;5095296;28;20386;-81
2021/08/14 02:03:39;;;;;;;14.93;5.45;;;;;;;22.63;48.85;101641.94;5077071;28;20150;-80
2021/08/14 02:06:08;;;;;;;18.42;5.95;;;;;;;22.53;48.88;101646.16;5076989;28;20051;-82
2021/08/14 02:08:35;;;;;;;13.98;5.68;;;;;;;22.70;48.53;101640.06;5076936;28;20082;-81
2021/08/14 02:11:02;;;;;;;12.43;5.70;;;;;;;22.51;49.12;101637.34;5076850;28;20098;-81
2021/08/14 02:13:30;;;;;;;13.23;4.72;;;;;;;22.40;49.43;101630.81;5095127;28;20031;-81
2021/08/14 02:15:56;;;;;;;13.57;4.82;;;;;;;22.48;48.96;101637.31;5094909;28;20024;-80
2021/08/14 02:18:21;;;;;;;14.02;5.45;;;;;;;22.39;49.12;101629.22;5076713;28;20537;-81
2021/08/14 02:20:47;;;;;;;17.05;6.43;;;;;;;22.34;49.70;101637.88;5076706;28;20039;-80
2021/08/14 02:23:12;;;;;;;19.58;5.72;;;;;;;22.46;49.19;101628.53;5076568;28;20059;-81
2021/08/14 02:25:38;;;;;;;19.73;5.97;;;;;;;22.51;48.99;101628.19;5076491;28;20026;-81
2021/08/14 02:28:04;;;;;;;21.40;5.88;;;;;;;22.23;49.53;101622.97;5094656;28;20044;-81
2021/08/14 02:30:29;;;;;;;22.85;6.20;;;;;;;22.40;49.18;101623.25;5076756;28;20051;-81
2021/08/14 02:32:55;;;;;;;17.92;6.70;;;;;;;22.35;49.38;101625.53;5076554;28;20636;-81
2021/08/14 02:35:20;;;;;;;16.50;5.93;;;;;;;22.42;49.09;101620.91;5094975;28;20102;-81
2021/08/14 02:37:46;;;;;;;11.70;5.15;;;;;;;22.60;48.60;101618.44;5094634;28;20482;-81
2021/08/14 02:40:12;;;;;;;17.67;6.20;;;;;;;22.49;48.90;101622.19;5094497;28;20024;-81
2021/08/14 02:42:42;;;;;;;14.35;5.82;;;;;;;22.42;49.11;101615.34;5094445;28;20024;-81
2021/08/14 02:45:09;;;;;;;26.88;6.55;;;;;;;22.46;48.87;101615.41;5094413;28;20028;-81
2021/08/14 02:47:34;;;;;;;17.23;6.10;;;;;;;22.51;48.84;101615.06;5094294;28;20024;-83
2021/08/14 02:50:00;;;;;;;18.77;6.07;;;;;;;22.57;48.24;101616.38;5076235;28;20028;-82
2021/08/14 02:52:26;;;;;;;23.40;6.82;;;;;;;22.52;48.65;101610.31;5093251;28;20020;-80
2021/08/14 02:54:51;;;;;;;24.48;7.60;;;;;;;22.45;49.00;101621.34;5094137;28;20027;-80
2021/08/14 02:57:17;;;;;;;17.45;6.05;;;;;;;22.43;48.86;101624.50;5094195;28;20051;-81
2021/08/14 02:59:42;;;;;;;18.92;6.60;;;;;;;22.38;49.20;101633.19;5076044;28;20028;-81
2021/08/14 03:02:08;;;;;;;15.60;6.30;;;;;;;22.45;48.89;101622.16;5075868;28;20028;-83
2021/08/14 03:04:33;;;;;;;15.65;6.85;;;;;;;22.11;49.93;101619.19;5075717;28;20024;-80
2021/08/14 03:06:59;;;;;;;16.63;6.60;;;;;;;22.51;48.51;101619.84;5075521;28;20462;-84
2021/08/14 03:09:25;;;;;;;17.00;6.45;;;;;;;22.51;48.39;101617.84;5075698;28;20470;-81
2021/08/14 03:11:50;;;;;;;21.20;6.68;;;;;;;22.36;48.85;101619.59;5075412;28;20027;-81
2021/08/14 03:14:16;;;;;;;16.92;5.28;;;;;;;22.43;48.75;101613.34;5093819;28;20106;-83
2021/08/14 03:16:41;;;;;;;19.65;5.93;;;;;;;22.35;48.69;101619.97;5075321;28;20070;-81
2021/08/14 03:19:07;;;;;;;16.50;6.05;;;;;;;22.22;49.42;101612.97;5075585;28;20120;-81
2021/08/14 03:21:32;;;;;;;20.95;6.28;;;;;;;22.33;49.01;101614.00;5075050;28;20406;-80
2021/08/14 03:23:58;;;;;;;17.92;6.20;;;;;;;22.42;48.57;101611.75;5093678;28;20024;-80
2021/08/14 03:26:25;;;;;;;16.45;6.18;;;;;;;22.35;48.88;101617.19;5093602;28;20064;-83
2021/08/14 03:28:51;;;;;;;15.40;5.80;;;;;;;22.27;49.11;101627.41;5075148;28;20445;-81
2021/08/14 03:31:20;;;;;;;18.10;6.75;;;;;;;22.22;49.12;101627.75;5075108;28;20028;-80
2021/08/14 03:33:46;;;;;;;13.32;5.57;;;;;;;22.26;48.94;101634.16;5075415;28;20066;-81
2021/08/14 03:36:12;;;;;;;15.63;5.43;;;;;;;22.36;48.75;101627.16;5093403;28;20423;-81
2021/08/14 03:38:37;;;;;;;15.60;6.00;;;;;;;22.41;48.43;101622.09;5075361;28;20028;-81
2021/08/14 03:41:05;;;;;;;16.92;6.03;;;;;;;22.33;48.81;101625.13;5074988;28;20448;-80
2021/08/14 03:43:30;;;;;;;14.45;5.85;;;;;;;22.20;49.09;101634.81;5093376;28;20032;-84
2021/08/14 03:45:56;;;;;;;15.70;5.55;;;;;;;21.87;50.04;101630.63;5093280;28;20085;-83
2021/08/14 03:48:22;;;;;;;18.02;6.70;;;;;;;22.07;49.50;101623.88;5075041;28;20126;-80
2021/08/14 03:50:47;;;;;;;19.45;6.25;;;;;;;21.94;49.73;101618.84;5093181;28;20024;-80
2021/08/14 03:53:13;;;;;;;19.02;6.93;;;;;;;22.00;49.53;101623.72;5093304;28;20057;-82
2021/08/14 03:55:38;;;;;;;21.67;6.18;;;;;;;21.90;49.93;101629.88;5074980;28;20031;-83
2021/08/14 03:58:04;;;;;;;18.17;6.35;;;;;;;21.90;49.87;101635.44;5075049;28;20032;-80
2021/08/14 04:00:29;;;;;;;23.23;6.43;;;;;;;21.89;49.76;101622.72;5093146;28;20032;-80
2021/08/14 04:02:55;;;;;;;18.25;6.25;;;;;;;22.10;49.07;101625.13;5074522;28;20038;-81
2021/08/14 04:05:20;;;;;;;21.80;6.18;;;;;;;22.13;49.00;101627.94;5093119;28;20028;-81
2021/08/14 04:07:46;;;;;;;28.48;8.25;;;;;;;22.20;48.70;101632.03;5074881;28;20047;-81
2021/08/14 04:10:12;;;;;;;20.42;6.93;;;;;;;22.25;48.46;101629.75;5074855;28;20206;-81
2021/08/14 04:12:37;;;;;;;19.92;7.55;;;;;;;22.12;48.87;101620.78;5074750;28;20028;-81
2021/08/14 04:15:04;;;;;;;22.17;6.75;;;;;;;22.18;49.15;101620.50;5074772;28;20492;-81
2021/08/14 04:17:31;;;;;;;16.83;6.25;;;;;;;22.07;48.98;101612.72;5092886;28;20109;-82
2021/08/14 04:19:57;;;;;;;16.85;6.13;;;;;;;22.20;48.74;101616.16;5092729;28;20030;-84
2021/08/14 04:22:22;;;;;;;16.45;6.10;;;;;;;22.26;48.33;101619.44;5074761;28;20032;-80
2021/08/14 04:24:48;;;;;;;16.42;6.18;;;;;;;22.23;48.64;101612.63;5092797;28;20078;-80
2021/08/14 04:27:13;;;;;;;19.38;7.13;;;;;;;22.21;48.69;101626.09;5074774;28;20047;-82
2021/08/14 04:29:39;;;;;;;18.85;6.57;;;;;;;22.19;48.80;101622.09;5092412;28;20048;-81
2021/08/14 04:32:05;;;;;;;20.50;6.13;;;;;;;22.25;48.74;101626.19;5074686;28;20375;-81
2021/08/14 04:34:31;;;;;;;14.43;5.85;;;;;;;22.19;48.76;101627.66;5074480;28;20024;-82
2021/08/14 04:36:56;;;;;;;27.33;7.32;;;;;;;22.20;48.98;101627.28;5092571;28;20028;-81
2021/08/14 04:39:22;;;;;;;14.02;6.70;;;;;;;22.21;48.92;101633.66;5092527;28;20067;-81
2021/08/14 04:41:48;;;;;;;17.65;5.68;;;;;;;22.19;48.92;101634.03;5074463;28;20432;-83
2021/08/14 04:44:14;;;;;;;20.67;6.65;;;;;;;22.30;48.49;101635.03;5092244;28;20050;-81
2021/08/14 04:46:40;;;;;;;21.08;6.75;;;;;;;22.35;48.46;101645.84;5074382;28;20028;-81
2021/08/14 04:49:05;;;;;;;15.27;5.95;;;;;;;22.32;48.49;101641.03;5091978;28;20509;-80
2021/08/14 04:51:31;;;;;;;17.38;6.95;;;;;;;22.30;48.44;101643.38;5092151;28;20089;-80
2021/08/14 04:53:56;;;;;;;16.52;6.30;;;;;;;22.35;48.27;101640.28;5074118;28;20030;-81
2021/08/14 04:56:23;;;;;;;15.88;6.07;;;;;;;22.25;48.67;101645.66;5072473;28;20032;-81
2021/08/14 04:58:48;;;;;;;13.73;6.40;;;;;;;22.32;48.44;101643.00;5091485;28;20028;-83
2021/08/14 05:01:14;;;;;;;21.42;7.97;;;;;;;22.35;48.16;101643.06;5092434;28;20028;-80
2021/08/14 05:03:40;;;;;;;15.25;6.22;;;;;;;22.42;48.36;101645.16;5092340;28;20024;-81
2021/08/14 05:06:07;;;;;;;18.80;5.85;;;;;;;22.46;47.95;101645.25;5092426;28;20039;-81
2021/08/14 05:08:34;;;;;;;22.50;7.55;;;;;;;22.47;47.85;101647.66;5092404;28;20047;-80
2021/08/14 05:10:59;;;;;;;19.92;6.60;;;;;;;22.44;47.89;101648.38;5074234;28;20127;-81
2021/08/14 05:13:25;;;;;;;25.45;8.50;;;;;;;22.47;47.91;101653.22;5092319;28;20419;-81
2021/08/14 05:15:50;;;;;;;11.95;5.47;;;;;;;22.52;47.93;101649.28;5095043;28;20194;-81
2021/08/14 05:18:16;;;;;;;18.27;6.45;;;;;;;22.45;48.21;101652.78;5078079;28;20584;-81
2021/08/14 05:20:43;;;;;;;19.27;6.82;;;;;;;22.50;48.14;101655.25;5077798;28;20076;-81
2021/08/14 05:23:08;;;;;;;26.13;6.63;;;;;;;22.55;47.73;101649.38;5077743;28;20119;-81
2021/08/14 05:25:34;;;;;;;20.70;6.85;;;;;;;22.57;48.11;101655.34;5077751;28;20104;-82
2021/08/14 05:27:59;;;;;;;18.80;7.40;;;;;;;22.64;47.78;101652.69;5095639;28;20044;-80
2021/08/14 05:30:25;;;;;;;18.55;6.82;;;;;;;22.63;47.61;101656.66;5095858;28;20074;-80
2021/08/14 05:32:50;;;;;;;21.65;7.70;;;;;;;22.69;47.59;101648.78;5077724;28;20028;-84
2021/08/14 05:35:17;;;;;;;20.73;6.90;;;;;;;22.71;47.68;101658.38;5095830;28;20035;-81
2021/08/14 05:37:42;;;;;;;15.32;6.43;;;;;;;22.56;48.10;101658.53;5077538;28;20031;-81
2021/08/14 05:40:08;;;;;;;27.27;7.20;;;;;;;22.65;47.89;101662.66;5095376;28;20389;-81
2021/08/14 05:42:34;;;;;;;19.75;6.88;;;;;;;22.47;48.54;101660.75;5095121;28;20077;-81
2021/08/14 05:45:00;;;;;;;19.88;6.18;;;;;;;22.45;48.63;101657.56;5093904;28;20111;-81
2021/08/14 05:47:25;;;;;;;20.10;6.78;;;;;;;22.47;48.73;101657.97;5075555;28;20028;-81
2021/08/14 05:49:51;;;;;;;19.60;7.50;;;;;;;22.54;48.61;101667.25;5075930;28;20436;-80
2021/08/14 05:52:17;;;;;;;19.73;6.57;;;;;;;22.56;48.30;101655.75;5093858;28;20051;-81
2021/08/14 05:54:42;;;;;;;21.50;7.32;;;;;;;22.57;48.27;101660.94;5093703;28;20031;-81
2021/08/14 05:57:08;;;;;;;27.75;6.55;;;;;;;22.50;48.89;101660.00;5075496;28;20028;-83
2021/08/14 05:59:33;;;;;;;19.70;6.07;;;;;;;22.47;48.86;101663.53;5095205;28;20036;-80
2021/08/14 06:01:59;;;;;;;17.85;5.97;;;;;;;22.46;49.06;101664.72;5077164;28;20105;-81
2021/08/14 06:04:25;;;;;;;16.67;5.90;;;;;;;22.51;48.66;101664.41;5095193;28;20020;-81
2021/08/14 06:06:50;;;;;;;22.48;7.30;;;;;;;22.54;48.81;101667.25;5095284;28;20410;-81
2021/08/14 06:09:16;;;;;;;16.92;6.60;;;;;;;22.47;49.10;101664.34;5076877;28;20089;-80
2021/08/14 06:11:42;;;;;;;20.75;6.20;;;;;;;22.43;49.33;101663.47;5077037;28;20031;-81
2021/08/14 06:14:08;;;;;;;18.55;7.13;;;;;;;22.38;49.53;101666.59;5076938;28;20437;-81
2021/08/14 06:16:33;;;;;;;18.83;6.60;;;;;;;22.45;49.32;101661.13;5076668;28;20474;-80
2021/08/14 06:18:59;;;;;;;14.55;6.93;;;;;;;22.54;49.55;101667.25;5076860;28;20039;-80
2021/08/14 06:21:25;;;;;;;20.35;6.95;;;;;;;22.63;48.96;101673.38;5094893;28;20476;-81
2021/08/14 06:23:50;;;;;;;20.50;6.32;;;;;;;22.71;49.13;101675.09;5076823;28;20202;-81
2021/08/14 06:26:17;;;;;;;18.75;6.43;;;;;;;22.67;49.30;101679.81;5094697;28;20478;-81
2021/08/14 06:28:43;;;;;;;27.17;6.88;;;;;;;22.73;49.08;101674.72;5076365;28;20060;-81
2021/08/14 06:31:08;;;;;;;16.77;6.40;;;;;;;22.62;49.42;101671.78;5076553;28;20031;-84
2021/08/14 06:33:34;;;;;;;21.08;6.78;;;;;;;22.68;49.37;101673.06;5094772;28;20028;-81
2021/08/14 06:35:59;;;;;;;19.20;6.38;;;;;;;22.63;49.80;101673.38;5076552;28;20028;-81
2021/08/14 06:38:25;;;;;;;18.25;6.65;;;;;;;22.66;49.57;101655.91;5094720;28;20032;-83
2021/08/14 06:40:50;;;;;;;15.93;5.80;;;;;;;22.71;49.35;101655.59;5076319;28;20040;-83
2021/08/14 06:43:16;;;;;;;20.05;6.45;;;;;;;22.83;49.37;101665.75;5076369;28;20027;-81
2021/08/14 06:45:41;;;;;;;21.25;6.38;;;;;;;22.78;49.33;101673.59;5076380;28;20089;-80
2021/08/14 06:48:07;;;;;;;15.85;6.40;;;;;;;22.84;49.35;101680.47;5094435;28;20028;-83
2021/08/14 06:50:33;;;;;;;18.02;6.03;;;;;;;23.01;49.18;101682.75;5094282;28;20075;-81
2021/08/14 06:52:59;;;;;;;16.67;6.55;;;;;;;23.02;49.30;101684.34;5094209;28;20102;-81
2021/08/14 06:55:24;;;;;;;21.10;7.57;;;;;;;23.09;49.04;101678.09;5076031;28;20066;-83
2021/08/14 06:57:50;;;;;;;22.08;7.00;;;;;;;23.09;49.39;101681.69;5076252;28;20037;-80
2021/08/14 07:00:16;;;;;;;14.98;6.22;;;;;;;23.20;48.89;101682.66;5075926;28;20030;-80
2021/08/14 07:02:42;;;;;;;16.02;5.68;;;;;;;23.26;48.90;101680.31;5075817;28;20028;-80
2021/08/14 07:05:08;;;;;;;26.17;7.15;;;;;;;23.26;48.92;101678.34;5075896;28;20501;-81
2021/08/14 07:07:34;;;;;;;23.38;7.05;;;;;;;23.01;50.02;101677.19;5093948;28;20031;-76
2021/08/14 07:10:05;;;;;;;22.77;7.20;;;;;;;22.93;49.88;101672.69;5093813;28;20030;-76
2021/08/14 07:12:31;;;;;;;13.95;6.65;;;;;;;23.26;49.32;101677.53;5093939;28;20081;-75
2021/08/14 07:14:56;;;;;;;18.75;6.70;;;;;;;23.26;49.11;101672.75;5093735;28;20028;-75
2021/08/14 07:17:22;;;;;;;17.15;7.47;;;;;;;23.32;49.02;101676.03;5093794;28;20093;-73
2021/08/14 07:19:48;;;;;;;19.58;7.38;;;;;;;23.50;48.95;101670.69;5074965;28;20374;-74
2021/08/14 07:22:14;;;;;;;13.82;7.15;;;;;;;23.57;48.71;101672.75;5093582;28;20058;-74
2021/08/14 07:24:39;;;;;;;26.55;9.13;;;;;;;23.53;48.60;101676.31;5093188;28;20039;-75
2021/08/14 07:27:05;;;;;;;18.80;8.05;;;;;;;23.80;47.85;101679.03;5093577;28;20032;-73
2021/08/14 07:29:30;;;;;;;17.27;7.97;;;;;;;23.76;48.28;101676.22;5065815;28;20052;-73
2021/08/14 07:31:56;;;;;;;19.00;8.75;;;;;;;23.82;47.54;101678.69;5064084;28;20029;-75
2021/08/14 07:34:22;;;;;;;16.55;8.15;;;;;;;23.66;48.20;101674.13;5093324;28;20024;-74
2021/08/14 07:36:47;;;;;;;17.50;7.60;;;;;;;23.76;47.56;101665.06;5093213;28;20058;-73
2021/08/14 07:39:13;;;;;;;14.73;6.75;;;;;;;23.63;47.85;101666.50;5074788;28;20028;-76
2021/08/14 07:41:39;;;;;;;16.45;7.60;;;;;;;23.96;47.02;101667.69;5093301;28;20032;-75
2021/08/14 07:44:04;;;;;;;15.98;7.57;;;;;;;24.00;46.89;101671.31;5075169;28;20024;-75
2021/08/14 07:46:30;;;;;;;20.00;8.25;;;;;;;24.13;46.43;101681.03;5074500;28;20028;-85
2021/08/14 07:48:56;;;;;;;22.15;8.63;;;;;;;24.23;46.16;101685.91;5074838;28;20416;-75
2021/08/14 07:51:21;;;;;;;24.20;8.02;;;;;;;24.20;46.28;101685.88;5093122;28;20030;-83
2021/08/14 07:53:47;;;;;;;15.15;6.57;;;;;;;24.20;46.31;101683.09;5093099;28;20028;-76
2021/08/14 07:56:12;;;;;;;15.07;7.40;;;;;;;24.20;46.11;101686.69;5074538;28;20088;-76
2021/08/14 07:58:38;;;;;;;22.98;6.55;;;;;;;24.14;46.29;101685.41;5074581;28;20504;-75
2021/08/14 08:01:04;;;;;;;14.98;5.45;;;;;;;24.08;46.67;101686.94;5092939;28;20165;-81
2021/08/14 08:03:30;;;;;;;21.08;7.93;;;;;;;24.24;46.37;101693.09;5092922;28;20058;-75
2021/08/14 08:05:56;;;;;;;18.98;5.97;;;;;;;24.04;46.68;101684.13;5092895;28;20020;-76
2021/08/14 08:08:22;;;;;;;15.10;6.00;;;;;;;24.22;46.14;101689.09;5092746;28;20165;-72
2021/08/14 08:10:47;;;;;;;11.40;5.88;;;;;;;24.19;46.49;101690.66;5092926;28;20106;-79
2021/08/14 08:13:13;;;;;;;15.38;5.85;;;;;;;24.17;46.48;101686.63;5074241;28;20028;-74
2021/08/14 08:15:39;;;;;;;17.05;6.55;;;;;;;24.33;45.94;101688.06;5074635;28;20028;-74
2021/08/14 08:18:04;;;;;;;21.00;5.97;;;;;;;24.44;45.77;101690.13;5074512;28;20173;-75
2021/08/14 08:20:30;;;;;;;16.73;5.97;;;;;;;24.49;45.41;101698.16;5092652;28;20074;-75
2021/08/14 08:22:56;;;;;;;19.25;6.05;;;;;;;24.46;45.56;101696.94;5092720;28;20028;-75
2021/08/14 08:25:22;;;;;;;14.27;5.88;;;;;;;24.73;45.04;101691.19;5074268;28;20032;-76
2021/08/14 08:27:49;;;;;;;19.98;5.40;;;;;;;24.77;44.55;101687.22;5074240;28;20416;-76
2021/08/14 08:30:17;;;;;;;18.77;5.68;;;;;;;24.61;44.98;101689.47;5074562;28;20032;-75
2021/08/14 08:32:44;;;;;;;16.63;5.20;;;;;;;24.63;44.87;101693.47;5092589;28;20047;-75
2021/08/14 08:35:11;;;;;;;18.23;5.80;;;;;;;24.83;44.67;101687.66;5092478;28;20024;-77
2021/08/14 08:37:37;;;;;;;16.30;5.72;;;;;;;24.79;44.42;101682.06;5092371;28;20039;-74
2021/08/14 08:40:04;;;;;;;12.98;5.68;;;;;;;24.90;44.16;101690.50;5073375;28;20386;-75
2021/08/14 08:42:30;;;;;;;13.63;6.03;;;;;;;25.02;43.60;101689.41;5092102;28;20589;-76
2021/08/14 08:44:56;;;;;;;11.27;4.55;;;;;;;25.00;43.83;101686.97;5091819;28;20107;-74
2021/08/14 08:47:21;;;;;;;24.55;6.57;;;;;;;24.79;44.38;101684.84;5092522;28;20028;-73
2021/08/14 08:49:55;;;;;;;15.20;5.93;;;;;;;24.59;44.50;101692.66;5093045;28;20032;-74
2021/08/14 08:52:23;;;;;;;13.07;5.18;;;;;;;24.74;44.32;101701.16;5076109;28;20032;-78
2021/08/14 08:54:50;;;;;;;13.85;5.18;;;;;;;24.79;43.91;101684.84;5076018;28;20029;-76
2021/08/14 08:57:15;;;;;;;19.90;5.47;;;;;;;24.90;44.13;101688.50;5076257;28;20032;-76
2021/08/14 08:59:43;;;;;;;11.43;5.35;;;;;;;24.87;44.25;101680.91;5076018;28;20040;-76
2021/08/14 09:02:22;;;;;;;14.63;5.30;;;;;;;24.96;44.06;101674.19;5076028;28;20024;-75
2021/08/14 09:04:57;;;;;;;22.20;6.50;;;;;;;24.92;44.44;101685.31;5083992;28;20024;-76
2021/08/14 09:07:28;;;;;;;13.07;5.15;;;;;;;24.85;44.20;101674.09;5068029;28;20120;-80
2021/08/14 09:09:59;;;;;;;21.80;6.60;;;;;;;24.85;44.45;101674.09;5085615;28;20367;-80
2021/08/14 09:12:32;;;;;;;13.25;5.88;;;;;;;25.04;44.47;101673.88;5083689;28;20024;-76
2021/08/14 09:14:58;;;;;;;15.13;5.50;;;;;;;25.25;43.94;101678.78;5083817;28;20029;-80
2021/08/14 09:17:29;;;;;;;11.15;5.03;;;;;;;25.34;43.76;101670.03;5065039;28;20375;-79
2021/08/14 09:20:12;;;;;;;11.25;5.45;;;;;;;25.21;44.67;101669.56;5085692;28;20028;-80
2021/08/14 09:22:39;;;;;;;17.58;6.85;;;;;;;25.45;43.66;101660.50;5065866;28;20033;-76
2021/08/14 09:25:18;;;;;;;17.70;6.97;;;;;;;25.39;44.32;101666.84;5082654;28;20024;-78
2021/08/14 09:28:00;;;;;;;12.13;5.80;;;;;;;25.47;43.75;101674.13;5081562;28;20108;-75
2021/08/14 09:30:53;;;;;;;16.83;6.18;;;;;;;25.50;44.04;101672.50;5080463;28;20024;-79
2021/08/14 09:33:24;;;;;;;15.63;5.63;;;;;;;25.63;44.05;101670.97;5084480;28;20074;-79
2021/08/14 09:36:09;;;;;;;15.73;6.05;;;;;;;25.69;44.09;101663.78;5083030;28;20119;-75
2021/08/14 09:38:41;;;;;;;18.15;6.93;;;;;;;25.63;44.09;101674.56;5083913;28;20406;-76
2021/08/14 09:41:14;;;;;;;13.68;5.10;;;;;;;25.79;43.72;101665.88;5063943;28;20029;-78
2021/08/14 09:43:41;;;;;;;17.33;6.63;;;;;;;25.85;43.45;101672.69;5084115;28;20211;-79
2021/08/14 09:46:07;;;;;;;17.17;6.03;;;;;;;25.77;43.57;101681.44;5064346;28;20041;-83
2021/08/14 09:48:32;;;;;;;22.95;7.70;;;;;;;25.75;43.28;101675.44;5065079;28;20688;-76
2021/08/14 09:50:58;;;;;;;21.92;7.45;;;;;;;25.82;43.41;101679.06;5082451;28;20043;-77
2021/08/14 09:53:27;;;;;;;16.65;7.15;;;;;;;25.82;43.43;101679.06;5083489;28;20400;-78
2021/08/14 09:56:04;;;;;;;13.43;6.05;;;;;;;25.78;43.74;101678.25;5083020;28;20044;-78
2021/08/14 09:58:31;;;;;;;16.90;5.63;;;;;;;25.68;43.64;101674.19;5065258;28;20028;-79
2021/08/14 10:01:00;;;;;;;18.83;6.63;;;;;;;25.57;44.07;101684.53;5064896;28;20539;-73
2021/08/14 10:03:28;;;;;;;11.30;5.88;;;;;;;25.25;44.68;101687.19;5080000;28;20028;-77
2021/08/14 10:05:54;;;;;;;17.52;6.65;;;;;;;25.58;43.72;101690.94;5066635;28;20032;-71
2021/08/14 10:08:21;;;;;;;14.88;6.60;;;;;;;25.42;44.18;101678.06;5062396;28;20476;-74
2021/08/14 10:10:47;;;;;;;14.95;5.93;;;;;;;25.59;44.20;101682.13;5064576;28;20093;-74
2021/08/14 10:13:14;;;;;;;19.90;7.90;;;;;;;25.74;44.12;101688.63;5087543;28;20118;-77
2021/08/14 10:15:40;;;;;;;30.27;7.63;;;;;;;25.58;44.14;101697.34;5090471;28;20071;-74
2021/08/14 10:18:06;;;;;;;16.80;6.80;;;;;;;25.41;44.25;101698.06;5089950;28;20047;-77
2021/08/14 10:20:32;;;;;;;25.15;8.35;;;;;;;25.48;43.76;101689.69;5090012;28;20039;-73
2021/08/14 10:23:07;;;;;;;16.48;6.07;;;;;;;25.64;43.50;101680.97;5087813;28;20040;-73
2021/08/14 10:25:37;;;;;;;13.27;5.18;;;;;;;25.73;43.30;101689.81;5068008;28;20060;-73
2021/08/14 10:28:05;;;;;;;12.15;6.15;;;;;;;25.76;43.26;101689.03;5055751;28;20502;-76
2021/08/14 10:30:53;;;;;;;18.02;5.40;;;;;;;25.66;43.50;101684.97;5072965;28;20024;-80
2021/08/14 10:33:27;;;;;;;11.13;5.78;;;;;;;25.93;43.10;101691.09;5068746;28;20028;-74
2021/08/14 10:35:57;;;;;;;12.32;4.25;;;;;;;26.04;42.80;101684.72;5055963;28;20429;-72
2021/08/14 10:38:40;;;;;;;24.23;6.72;;;;;;;25.93;42.97;101691.09;5067729;28;20119;-74
2021/08/14 10:41:06;;;;;;;20.75;5.80;;;;;;;26.14;42.86;101684.72;5072955;28;20021;-71
2021/08/14 10:43:59;;;;;;;12.48;4.90;;;;;;;26.28;42.43;101672.75;5072375;28;20512;-71
2021/08/14 10:46:49;;;;;;;14.27;5.43;;;;;;;26.33;42.17;101680.78;5085820;28;20056;-72
2021/08/14 10:49:34;;;;;;;14.05;4.60;;;;;;;26.32;42.09;101676.38;5073621;28;20039;-72
2021/08/14 10:52:02;;;;;;;25.13;6.72;;;;;;;26.50;41.56;101670.81;5073940;28;20045;-74
2021/08/14 10:54:28;;;;;;;19.10;6.03;;;;;;;26.53;41.37;101665.22;5074710;28;20028;-72
2021/08/14 10:56:59;;;;;;;21.20;6.45;;;;;;;26.38;41.19;101668.38;5054775;28;20446;-75
2021/08/14 10:59:38;;;;;;;25.73;6.72;;;;;;;26.39;40.87;101673.63;5072535;28;20420;-80
2021/08/14 11:02:07;;;;;;;15.48;6.13;;;;;;;26.59;39.96;101671.19;5078679;28;20143;-72
2021/08/14 11:04:42;;;;;;;16.38;5.65;;;;;;;26.44;40.32;101672.41;5054564;28;20032;-72
2021/08/14 11:07:17;;;;;;;19.73;5.47;;;;;;;26.65;39.20;101669.59;5073500;28;20029;-71
2021/08/14 11:10:06;;;;;;;13.35;4.72;;;;;;;26.85;39.11;101680.41;5085342;28;20035;-71
2021/08/14 11:12:47;;;;;;;12.15;4.97;;;;;;;26.98;38.61;101670.34;5053122;28;20071;-71
2021/08/14 11:15:20;;;;;;;18.55;6.25;;;;;;;26.75;38.78;101662.38;5074381;28;20054;-71
2021/08/14 11:17:53;;;;;;;13.35;4.03;;;;;;;26.74;38.73;101664.38;5059579;28;20032;-70
2021/08/14 11:20:20;;;;;;;17.65;5.25;;;;;;;26.73;38.62;101673.19;5077291;28;20485;-71